Time;durP1;ratioP1;P1;durP2;ratioP2;P2;SDS_P1;SDS_P2;PMS_P1;PMS_P2;Temp;Humidity;BMP_temperature;BMP_pressure;BME280_temperature;BME280_humidity;BME280_pressure;Samples;Min_cycle;Max_cycle;Signal;HPM_P1;HPM_P2
2023/08/10 00:01:42;;;;;;;5.22;1.60;;;13.70;1.00;;;;;;5075845;28;20032;-63
2023/08/10 00:04:07;;;;;;;6.13;1.40;;;13.70;1.00;;;;;;5075527;28;20093;-62
2023/08/10 00:06:33;;;;;;;8.15;2.10;;;13.70;21.00;;;;;;5075734;28;20422;-63
2023/08/10 00:08:58;;;;;;;3.28;1.63;;;13.60;15.80;;;;;;5075672;28;20040;-62
2023/08/10 00:11:24;;;;;;;5.30;1.50;;;13.80;99.90;;;;;;5074370;28;20072;-62
2023/08/10 00:13:50;;;;;;;7.85;2.13;;;13.50;99.90;;;;;;5075580;28;20043;-62
2023/08/10 00:16:15;;;;;;;4.18;1.83;;;13.60;99.90;;;;;;5075564;28;20036;-62
2023/08/10 00:18:41;;;;;;;2.88;1.45;;;13.50;99.90;;;;;;5073963;28;20123;-62
2023/08/10 00:21:06;;;;;;;3.38;1.48;;;13.50;99.90;;;;;;5075631;28;20044;-65
2023/08/10 00:23:32;;;;;;;3.15;1.77;;;13.50;99.90;;;;;;5074142;28;20056;-66
2023/08/10 00:25:57;;;;;;;3.22;1.40;;;13.40;99.90;;;;;;5075131;28;20036;-65
2023/08/10 00:28:23;;;;;;;3.28;1.50;;;13.40;99.90;;;;;;5075382;28;20036;-66
2023/08/10 00:30:48;;;;;;;4.55;1.67;;;13.40;99.90;;;;;;5075201;28;20041;-65
2023/08/10 00:33:14;;;;;;;7.00;1.75;;;13.20;99.90;;;;;;5074206;28;20033;-66
2023/08/10 00:35:40;;;;;;;4.75;1.38;;;13.30;99.90;;;;;;5075058;28;20420;-66
2023/08/10 00:38:06;;;;;;;9.13;2.10;;;13.30;99.90;;;;;;5075114;28;20087;-66
2023/08/10 00:40:32;;;;;;;3.92;1.58;;;13.30;99.90;;;;;;5075160;28;20028;-62
2023/08/10 00:43:00;;;;;;;5.10;1.60;;;13.10;99.90;;;;;;5075388;28;20040;-63
2023/08/10 00:45:27;;;;;;;7.07;1.92;;;13.20;99.90;;;;;;5074747;28;20047;-62
2023/08/10 00:47:53;;;;;;;4.07;1.90;;;13.20;99.90;;;;;;5075009;28;20391;-63
2023/08/10 00:50:19;;;;;;;4.88;1.58;;;13.20;99.90;;;;;;5074879;28;20041;-62
2023/08/10 00:52:45;;;;;;;3.17;1.50;;;13.10;99.90;;;;;;5074494;28;20076;-62
2023/08/10 00:55:11;;;;;;;6.00;1.88;;;13.10;99.90;;;;;;5074826;28;20051;-62
2023/08/10 00:57:37;;;;;;;3.40;1.25;;;13.10;99.90;;;;;;5074444;28;20048;-62
2023/08/10 01:00:05;;;;;;;3.03;1.75;;;13.10;99.90;;;;;;5073524;28;20036;-62
2023/08/10 01:02:31;;;;;;;3.33;1.60;;;13.10;99.90;;;;;;5074363;28;20506;-62
2023/08/10 01:04:57;;;;;;;2.88;1.58;;;13.10;99.90;;;;;;5074573;28;20041;-62
2023/08/10 01:07:34;;;;;;;6.95;1.98;;;13.10;1.00;;;;;;5072997;28;20040;-62
2023/08/10 01:10:15;;;;;;;3.67;1.63;;;13.10;1.00;;;;;;5073179;28;20162;-62
2023/08/10 01:12:51;;;;;;;4.65;1.77;;;13.10;1.00;;;;;;5074369;28;20049;-63
2023/08/10 01:15:21;;;;;;;5.68;1.45;;;13.10;1.00;;;;;;5072899;28;20085;-63
2023/08/10 01:17:56;;;;;;;3.92;1.58;;;13.20;1.00;;;;;;5074021;28;20036;-63
2023/08/10 01:20:25;;;;;;;5.93;2.38;;;13.20;1.00;;;;;;5074285;28;20033;-63
2023/08/10 01:22:50;;;;;;;6.25;1.75;;;13.30;99.90;;;;;;5074227;28;20044;-63
2023/08/10 01:25:17;;;;;;;7.28;2.20;;;13.30;1.00;;;;;;5072979;28;20093;-63
2023/08/10 01:27:44;;;;;;;4.57;1.58;;;13.30;1.00;;;;;;5073924;28;20105;-63
2023/08/10 01:36:24;;;;;;;4.70;1.95;;;13.40;1.00;;;;;;5111373;28;20055;-63
2023/08/10 01:38:49;;;;;;;6.25;1.45;;;13.40;99.90;;;;;;5114644;28;20043;-65
2023/08/10 01:41:15;;;;;;;4.38;1.38;;;13.40;99.90;;;;;;5114565;28;20158;-64
2023/08/10 01:43:40;;;;;;;2.88;1.52;;;13.40;1.00;;;;;;5114258;28;20039;-65
2023/08/10 01:46:08;;;;;;;9.38;1.52;;;13.40;1.00;;;;;;5114152;28;20539;-65
2023/08/10 01:48:38;;;;;;;3.78;1.77;;;13.40;1.00;;;;;;5114405;28;20107;-65
2023/08/10 01:51:07;;;;;;;6.38;1.70;;;13.40;99.90;;;;;;5114292;28;20108;-65
2023/08/10 01:53:35;;;;;;;5.82;1.67;;;13.50;99.90;;;;;;5114187;28;20175;-65
2023/08/10 01:56:02;;;;;;;3.85;1.55;;;13.50;99.90;;;;;;5114256;28;20035;-64
2023/08/10 01:58:27;;;;;;;3.38;1.85;;;13.50;99.90;;;;;;5114228;28;20031;-64
2023/08/10 02:00:53;;;;;;;4.75;1.70;;;13.50;99.90;;;;;;5114169;28;20492;-65
2023/08/10 02:03:19;;;;;;;4.88;2.08;;;13.50;99.90;;;;;;5114229;28;20041;-64
2023/08/10 02:05:44;;;;;;;3.30;1.67;;;13.50;99.90;;;;;;5112416;28;20078;-65
2023/08/10 02:08:10;;;;;;;5.68;1.83;;;13.50;99.90;;;;;;5113811;28;20044;-64
2023/08/10 02:10:36;;;;;;;5.25;2.03;;;13.50;99.90;;;;;;5113959;28;20050;-64
2023/08/10 02:13:01;;;;;;;9.05;2.00;;;13.50;99.90;;;;;;5114008;28;20418;-65
2023/08/10 02:15:27;;;;;;;5.13;1.75;;;13.50;99.90;;;;;;5113886;28;20467;-64
2023/08/10 02:17:53;;;;;;;5.40;2.00;;;13.50;1.00;;;;;;5113925;28;20517;-65
2023/08/10 02:20:18;;;;;;;8.68;2.10;;;13.70;99.90;;;;;;5113849;28;20047;-65
2023/08/10 02:22:51;;;;;;;3.88;1.60;;;13.50;99.90;;;;;;5113909;28;20406;-65
2023/08/10 02:25:19;;;;;;;4.18;2.10;;;13.40;99.90;;;;;;5113483;28;20118;-65
2023/08/10 02:27:46;;;;;;;4.28;1.85;;;13.40;1.00;;;;;;5113495;28;20040;-65
2023/08/10 02:30:12;;;;;;;3.17;1.60;;;13.40;1.00;;;;;;5113777;28;20478;-65
2023/08/10 02:32:38;;;;;;;5.68;2.08;;;13.40;1.00;;;;;;5113381;28;20054;-65
2023/08/10 02:35:05;;;;;;;5.38;2.15;;;13.40;1.00;;;;;;5113676;28;20116;-67
2023/08/10 02:37:32;;;;;;;4.63;1.73;;;13.40;1.00;;;;;;5110017;28;20055;-65
2023/08/10 02:39:58;;;;;;;4.32;1.90;;;13.30;1.00;;;;;;5113708;28;20497;-65
2023/08/10 02:42:23;;;;;;;5.05;2.10;;;13.30;1.00;;;;;;5113582;28;20043;-65
2023/08/10 02:44:50;;;;;;;4.63;1.60;;;13.30;1.00;;;;;;5113468;28;20040;-62
2023/08/10 02:47:16;;;;;;;4.13;2.10;;;13.30;1.00;;;;;;5113551;28;20043;-62
2023/08/10 02:49:41;;;;;;;8.35;2.08;;;13.30;1.00;;;;;;5111963;28;20406;-68
2023/08/10 02:52:07;;;;;;;6.85;1.83;;;13.20;1.00;;;;;;5113349;28;20047;-63
2023/08/10 02:54:32;;;;;;;2.90;1.80;;;13.10;1.00;;;;;;5113693;28;20032;-63
2023/08/10 02:56:58;;;;;;;3.67;1.90;;;13.30;1.00;;;;;;5114636;28;20031;-63
2023/08/10 02:59:24;;;;;;;4.10;1.80;;;13.20;1.00;;;;;;5117473;28;20066;-63
2023/08/10 03:01:49;;;;;;;5.43;2.35;;;13.30;1.00;;;;;;5117579;28;20044;-63
2023/08/10 03:04:15;;;;;;;7.47;2.10;;;13.30;1.00;;;;;;5117680;28;20035;-63
2023/08/10 03:06:40;;;;;;;3.22;1.75;;;13.30;1.00;;;;;;5117290;28;20508;-63
2023/08/10 03:09:06;;;;;;;7.95;2.42;;;13.30;1.00;;;;;;5117237;28;20035;-63
2023/08/10 03:11:32;;;;;;;5.13;1.90;;;13.30;1.00;;;;;;5117112;28;20052;-63
2023/08/10 03:13:58;;;;;;;5.30;2.30;;;13.30;1.00;;;;;;5117398;28;20583;-63
2023/08/10 03:16:24;;;;;;;6.05;2.15;;;13.30;1.00;;;;;;5117412;27;20032;-63
2023/08/10 03:18:50;;;;;;;3.70;2.25;;;13.30;1.00;;;;;;5117253;28;20040;-63
2023/08/10 03:21:16;;;;;;;5.28;2.30;;;13.30;1.00;;;;;;5117294;28;20432;-63
2023/08/10 03:23:42;;;;;;;4.15;2.00;;;13.30;1.00;;;;;;5117218;28;20040;-65
2023/08/10 03:26:08;;;;;;;2.90;1.85;;;13.30;1.00;;;;;;5117212;28;20040;-63
2023/08/10 03:28:33;;;;;;;4.32;2.30;;;13.60;1.00;;;;;;5117210;28;20036;-63
2023/08/10 03:30:59;;;;;;;7.13;2.20;;;13.20;1.00;;;;;;5117038;28;20492;-63
2023/08/10 03:33:25;;;;;;;6.85;2.22;;;13.20;1.00;;;;;;5117026;28;20036;-63
2023/08/10 03:35:50;;;;;;;6.38;2.13;;;13.30;1.00;;;;;;5115476;28;20076;-63
2023/08/10 03:38:16;;;;;;;7.47;2.50;;;13.20;1.00;;;;;;5116521;28;20543;-61
2023/08/10 03:40:42;;;;;;;5.90;2.40;;;13.20;1.00;;;;;;5116878;28;20043;-61
2023/08/10 03:43:07;;;;;;;5.50;2.22;;;13.30;1.00;;;;;;5116885;28;20059;-61
2023/08/10 03:45:33;;;;;;;3.05;1.77;;;13.30;1.00;;;;;;5116814;28;20043;-63
2023/08/10 03:47:58;;;;;;;6.45;2.15;;;13.30;1.00;;;;;;5116681;28;20047;-63
2023/08/10 03:50:24;;;;;;;3.72;2.00;;;13.30;1.00;;;;;;5116740;28;20040;-63
2023/08/10 03:52:50;;;;;;;5.03;2.40;;;13.40;1.00;;;;;;5116587;28;20123;-63
2023/08/10 03:55:15;;;;;;;7.75;2.15;;;13.30;1.00;;;;;;5116801;28;20028;-64
2023/08/10 03:57:42;;;;;;;5.95;1.92;;;13.30;1.00;;;;;;5116277;28;20092;-64
2023/08/10 04:00:10;;;;;;;4.72;2.20;;;13.30;1.00;;;;;;5116568;28;20077;-63
2023/08/10 04:02:35;;;;;;;4.60;2.00;;;13.30;1.00;;;;;;5116383;28;20068;-63
2023/08/10 04:05:05;;;;;;;4.80;2.20;;;13.50;1.00;;;;;;5116550;28;20483;-63
2023/08/10 04:07:33;;;;;;;4.38;2.15;;;13.30;1.00;;;;;;5116238;28;20047;-63
2023/08/10 04:10:02;;;;;;;5.93;2.47;;;13.70;1.00;;;;;;5116346;28;20121;-63
2023/08/10 04:12:28;;;;;;;4.47;2.13;;;13.40;1.00;;;;;;5116249;28;20501;-63
2023/08/10 04:14:53;;;;;;;5.55;2.50;;;13.30;1.00;;;;;;5116267;28;20063;-63
2023/08/10 04:17:19;;;;;;;6.47;2.38;;;13.40;1.00;;;;;;5116223;28;20044;-63
2023/08/10 04:19:45;;;;;;;8.85;2.55;;;13.40;1.00;;;;;;5116134;28;20043;-63
2023/08/10 04:22:10;;;;;;;4.20;1.92;;;13.40;1.00;;;;;;5116140;28;20502;-63
2023/08/10 04:24:36;;;;;;;4.80;2.08;;;13.30;1.00;;;;;;5116068;28;20031;-63
2023/08/10 04:27:02;;;;;;;7.78;2.38;;;13.40;1.00;;;;;;5116007;28;20043;-63
2023/08/10 04:29:27;;;;;;;6.85;2.00;;;13.40;1.00;;;;;;5115923;28;20123;-63
2023/08/10 04:31:53;;;;;;;7.68;2.47;;;13.40;1.00;;;;;;5115786;28;20118;-63
2023/08/10 04:34:19;;;;;;;10.60;2.28;;;13.80;1.00;;;;;;5115870;28;20039;-63
2023/08/10 04:36:44;;;;;;;5.15;2.17;;;13.50;1.00;;;;;;5115396;28;20043;-64
2023/08/10 04:39:10;;;;;;;4.05;2.13;;;13.50;1.00;;;;;;5115776;28;20043;-63
2023/08/10 04:41:35;;;;;;;3.08;2.00;;;13.50;1.00;;;;;;5115700;28;20032;-63
2023/08/10 04:44:01;;;;;;;4.30;2.17;;;13.50;1.00;;;;;;5115633;28;20051;-63
2023/08/10 04:46:26;;;;;;;6.65;2.22;;;13.50;1.00;;;;;;5115638;28;20114;-63
2023/08/10 04:48:52;;;;;;;5.70;2.10;;;13.50;1.00;;;;;;5115569;28;20486;-63
2023/08/10 04:51:18;;;;;;;5.65;2.13;;;13.30;1.00;;;;;;5115452;28;20157;-63
2023/08/10 04:53:43;;;;;;;3.92;1.92;;;13.50;1.00;;;;;;5115498;28;20036;-63
2023/08/10 04:56:09;;;;;;;4.65;1.98;;;13.50;1.00;;;;;;5115127;28;20046;-63
2023/08/10 04:58:34;;;;;;;5.97;2.70;;;13.50;1.00;;;;;;5115409;28;20032;-63
2023/08/10 05:01:02;;;;;;;3.40;1.85;;;13.50;1.00;;;;;;5114075;28;20040;-63
2023/08/10 05:03:27;;;;;;;10.48;2.80;;;13.60;1.00;;;;;;5114987;28;20044;-63
2023/08/10 05:05:53;;;;;;;6.10;2.10;;;13.30;1.00;;;;;;5115327;28;20039;-63
2023/08/10 05:08:21;;;;;;;3.08;1.77;;;13.60;1.00;;;;;;5115173;28;20078;-63
2023/08/10 05:10:47;;;;;;;6.60;2.15;;;13.30;1.00;;;;;;5114968;28;20046;-63
2023/08/10 05:13:13;;;;;;;6.22;2.15;;;13.60;1.00;;;;;;5114745;28;20044;-64
2023/08/10 05:15:38;;;;;;;5.35;2.33;;;13.60;1.00;;;;;;5115119;28;20046;-65
2023/08/10 05:18:05;;;;;;;3.97;2.10;;;;;;;;;;5115056;28;20028;-65
2023/08/10 05:20:31;;;;;;;4.97;1.95;;;;;;;;;;5114372;28;20079;-65
2023/08/10 05:22:57;;;;;;;6.35;2.20;;;13.70;1.00;;;;;;5113580;28;20043;-65
2023/08/10 05:25:22;;;;;;;2.75;1.77;;;14.20;1.00;;;;;;5114570;28;20062;-65
2023/08/10 05:27:48;;;;;;;4.95;2.35;;;14.20;1.00;;;;;;5113217;28;20078;-65
2023/08/10 05:30:14;;;;;;;10.50;2.30;;;14.10;1.00;;;;;;5114473;28;20104;-65
2023/08/10 05:32:43;;;;;;;6.68;2.13;;;14.70;1.00;;;;;;5113052;28;20040;-65
2023/08/10 05:35:09;;;;;;;3.47;1.80;;;14.60;1.00;;;;;;5114679;28;20043;-65
2023/08/10 05:37:35;;;;;;;3.03;1.67;;;13.90;1.00;;;;;;5114317;28;20079;-65
2023/08/10 05:40:02;;;;;;;8.55;2.42;;;14.30;1.00;;;;;;5114502;28;20498;-65
2023/08/10 05:42:28;;;;;;;8.45;2.42;;;14.40;1.00;;;;;;5114348;28;20449;-65
2023/08/10 05:44:54;;;;;;;3.28;1.73;;;;;;;;;;5113193;28;20042;-65
2023/08/10 05:47:20;;;;;;;5.35;1.90;;;14.20;1.00;;;;;;5114464;28;20046;-65
2023/08/10 05:49:45;;;;;;;5.05;2.03;;;14.80;1.00;;;;;;5114081;28;20035;-65
2023/08/10 05:52:11;;;;;;;7.07;1.90;;;14.60;1.00;;;;;;5113065;28;20500;-65
2023/08/10 05:54:36;;;;;;;5.57;2.50;;;14.40;1.00;;;;;;5114283;28;20035;-65
2023/08/10 05:57:02;;;;;;;6.88;2.00;;;14.50;1.00;;;;;;5114268;28;20049;-65
2023/08/10 05:59:28;;;;;;;5.38;2.10;;;14.60;1.00;;;;;;5113945;28;20093;-65
2023/08/10 06:01:53;;;;;;;4.75;1.73;;;14.60;1.00;;;;;;5113905;28;20569;-63
2023/08/10 06:04:19;;;;;;;5.28;1.42;;;;;;;;;;5113811;28;20047;-64
2023/08/10 06:06:46;;;;;;;4.18;2.08;;;;;;;;;;5114122;28;20367;-64
2023/08/10 06:09:12;;;;;;;4.47;1.90;;;;;;;;;;5112531;28;20410;-63
2023/08/10 06:11:38;;;;;;;4.22;1.55;;;;;;;;;;5113943;28;20505;-64
2023/08/10 06:14:04;;;;;;;4.10;1.75;;;;;;;;;;5113933;28;20047;-64
2023/08/10 06:16:30;;;;;;;5.85;1.92;;;;;;;;;;5112405;28;20819;-65
2023/08/10 06:18:56;;;;;;;5.40;1.90;;;;;;;;;;5114197;28;20069;-65
2023/08/10 06:21:22;;;;;;;6.00;1.73;;;;;;;;;;5112248;28;20482;-66
2023/08/10 06:23:50;;;;;;;4.78;1.83;;;;;;;;;;5113734;28;20035;-65
2023/08/10 06:26:16;;;;;;;5.22;1.67;;;;;;;;;;5113934;28;20478;-65
2023/08/10 06:28:43;;;;;;;5.53;1.60;;;;;;;;;;5113744;28;20047;-65
2023/08/10 06:31:10;;;;;;;4.50;1.65;;;;;;;;;;5112917;28;20054;-65
2023/08/10 06:33:36;;;;;;;4.15;1.88;;;;;;;;;;5113207;28;20092;-65
2023/08/10 06:36:03;;;;;;;5.50;1.45;;;;;;;;;;5113585;28;20035;-65
2023/08/10 06:38:29;;;;;;;10.48;1.42;;;;;;;;;;5113659;28;20051;-65
2023/08/10 06:40:56;;;;;;;4.07;1.63;;;;;;;;;;5113608;28;20118;-65
2023/08/10 06:43:22;;;;;;;5.15;1.50;;;;;;;;;;5112245;28;20048;-65
2023/08/10 06:45:47;;;;;;;3.83;1.58;;;15.90;99.90;;;;;;5113561;28;20096;-65
2023/08/10 06:48:13;;;;;;;2.90;1.30;;;16.20;99.90;;;;;;5113538;28;20042;-65
2023/08/10 06:50:39;;;;;;;4.05;1.50;;;15.90;99.90;;;;;;5113372;28;20103;-65
2023/08/10 06:53:07;;;;;;;4.45;1.45;;;16.00;99.90;;;;;;5113295;28;20045;-65
2023/08/10 06:55:33;;;;;;;2.30;1.40;;;16.30;1.00;;;;;;5113266;28;20115;-65
2023/08/10 06:57:59;;;;;;;2.65;1.48;;;16.70;99.90;;;;;;5113479;28;20165;-65
2023/08/10 07:00:25;;;;;;;7.55;1.63;;;16.30;1.00;;;;;;5112476;28;20487;-65
2023/08/10 07:02:53;;;;;;;8.00;1.52;;;16.30;75.70;;;;;;5113363;28;20054;-66
2023/08/10 07:05:21;;;;;;;4.63;1.20;;;16.50;99.90;;;;;;5113075;28;20044;-65
2023/08/10 07:07:47;;;;;;;3.47;1.30;;;16.30;99.90;;;;;;5113418;28;20050;-65
2023/08/10 07:10:13;;;;;;;3.97;1.42;;;16.60;99.90;;;;;;5113394;28;20039;-65
2023/08/10 07:12:39;;;;;;;3.08;1.40;;;16.60;99.90;;;;;;5112914;28;20069;-65
2023/08/10 07:15:07;;;;;;;3.80;1.20;;;16.80;94.90;;;;;;5113321;28;20032;-64
2023/08/10 07:17:34;;;;;;;3.42;1.50;;;17.00;1.00;;;;;;5112013;28;20039;-63
2023/08/10 07:19:59;;;;;;;4.47;1.20;;;17.10;99.90;;;;;;5112998;28;20075;-63
2023/08/10 07:22:25;;;;;;;7.80;0.95;;;17.10;99.90;;;;;;5112908;28;20051;-63
2023/08/10 07:24:51;;;;;;;3.40;1.08;;;17.20;1.00;;;;;;5113201;28;20039;-63
2023/08/10 07:27:17;;;;;;;3.17;0.98;;;17.50;99.90;;;;;;5113101;28;20501;-63
2023/08/10 07:29:43;;;;;;;3.13;0.95;;;17.40;99.90;;;;;;5113199;28;20040;-64
2023/08/10 07:32:08;;;;;;;6.10;1.27;;;17.40;99.90;;;;;;5111513;28;20563;-63
2023/08/10 07:34:34;;;;;;;2.25;1.10;;;17.40;99.90;;;;;;5111570;28;20122;-63
2023/08/10 07:37:00;;;;;;;3.25;1.38;;;17.50;97.40;;;;;;5112709;28;20055;-65
2023/08/10 07:39:26;;;;;;;2.80;0.93;;;17.50;60.90;;;;;;5113134;28;20031;-64
2023/08/10 07:41:52;;;;;;;2.58;1.08;;;17.60;1.00;;;;;;5113055;28;20412;-63
2023/08/10 07:44:18;;;;;;;4.70;1.25;;;17.40;1.00;;;;;;5116095;28;20521;-63
2023/08/10 07:46:46;;;;;;;2.25;0.85;;;17.70;1.00;;;;;;5116824;28;20032;-63
2023/08/10 07:49:14;;;;;;;4.97;1.08;;;17.80;99.90;;;;;;5116769;28;20447;-63
2023/08/10 07:51:41;;;;;;;2.42;0.90;;;18.10;99.90;;;;;;5116561;28;20395;-63
2023/08/10 07:54:08;;;;;;;5.93;1.25;;;18.00;99.90;;;;;;5116363;28;20114;-63
2023/08/10 07:56:34;;;;;;;2.40;1.00;;;18.40;99.90;;;;;;5116696;28;20034;-63
2023/08/10 07:59:00;;;;;;;3.35;0.82;;;18.50;99.90;;;;;;5116504;28;20390;-63
2023/08/10 08:01:26;;;;;;;1.60;0.90;;;18.50;99.90;;;;;;5116600;28;20031;-63
2023/08/10 08:03:51;;;;;;;5.22;1.40;;;18.60;99.90;;;;;;5116379;28;20039;-61
2023/08/10 08:06:17;;;;;;;4.55;0.98;;;18.60;99.90;;;;;;5116419;28;20039;-61
2023/08/10 08:08:43;;;;;;;3.60;1.08;;;18.60;99.90;;;;;;5116299;28;20035;-61
2023/08/10 08:11:08;;;;;;;1.98;1.10;;;18.60;99.90;;;;;;5116287;28;20531;-61
2023/08/10 08:13:34;;;;;;;4.90;1.00;;;18.60;99.90;;;;;;5114666;28;20043;-61
2023/08/10 08:15:59;;;;;;;2.85;0.95;;;18.50;99.90;;;;;;5116169;28;20478;-62
2023/08/10 08:18:44;;;;;;;4.82;1.10;;;18.40;99.90;;;;;;5116195;28;20038;-62
2023/08/10 08:21:19;;;;;;;3.83;0.77;;;18.40;99.90;;;;;;5116102;28;20439;-62
2023/08/10 08:23:46;;;;;;;2.30;0.68;;;18.40;99.90;;;;;;5116107;28;20417;-62
2023/08/10 08:26:12;;;;;;;1.90;0.93;;;18.40;99.90;;;;;;5116094;28;20071;-62
2023/08/10 08:28:38;;;;;;;5.30;1.20;;;18.30;99.90;;;;;;5115950;28;20119;-62
2023/08/10 08:31:04;;;;;;;3.92;0.70;;;18.20;99.90;;;;;;5115895;28;20122;-62
2023/08/10 08:33:30;;;;;;;2.85;0.70;;;18.20;99.90;;;;;;5115875;28;20036;-62
2023/08/10 08:35:56;;;;;;;4.80;0.73;;;18.20;99.90;;;;;;5115925;28;20058;-64
2023/08/10 08:38:22;;;;;;;5.05;0.90;;;18.20;99.90;;;;;;5115329;28;20185;-63
2023/08/10 08:40:48;;;;;;;1.08;0.60;;;18.50;99.90;;;;;;5115342;28;20043;-64
2023/08/10 08:43:15;;;;;;;1.08;0.73;;;18.10;99.90;;;;;;5115609;28;20165;-64
2023/08/10 08:45:41;;;;;;;2.67;0.85;;;18.10;99.90;;;;;;5114246;28;20050;-64
2023/08/10 08:48:07;;;;;;;4.00;1.00;;;18.10;99.90;;;;;;5115402;28;20023;-64
2023/08/10 08:50:36;;;;;;;4.25;0.70;;;18.10;99.90;;;;;;5115461;28;20032;-64
2023/08/10 08:53:07;;;;;;;4.03;1.05;;;18.50;99.90;;;;;;5115138;28;20044;-64
2023/08/10 08:55:32;;;;;;;;;;;18.10;99.90;;;;;;5114756;28;20039;-64
2023/08/10 08:57:58;;;;;;;1.10;0.77;;;18.10;99.90;;;;;;5115466;28;19931;-64
2023/08/10 09:00:24;;;;;;;3.10;0.90;;;18.20;99.90;;;;;;5115072;28;20035;-64
2023/08/10 09:02:51;;;;;;;1.48;0.75;;;18.10;99.90;;;;;;5115054;28;20039;-65
2023/08/10 09:05:17;;;;;;;2.92;0.90;;;18.20;99.90;;;;;;5115386;28;20040;-64
2023/08/10 09:07:43;;;;;;;4.78;1.13;;;18.20;99.90;;;;;;5115207;28;20031;-64
2023/08/10 09:10:09;;;;;;;2.63;0.95;;;18.70;99.90;;;;;;5113868;28;20440;-64
2023/08/10 09:12:37;;;;;;;4.20;0.95;;;18.30;99.90;;;;;;5115140;28;20091;-64
2023/08/10 09:15:11;;;;;;;3.25;0.80;;;18.30;99.90;;;;;;5113787;28;20031;-65
2023/08/10 09:17:46;;;;;;;2.85;0.90;;;18.20;99.90;;;;;;5115098;28;20489;-64
2023/08/10 09:20:24;;;;;;;2.42;0.63;;;18.40;99.90;;;;;;5115030;28;20396;-65
2023/08/10 09:22:54;;;;;;;3.97;0.88;;;18.50;99.90;;;;;;5114992;28;20040;-65
2023/08/10 09:25:21;;;;;;;2.97;0.85;;;18.40;99.90;;;;;;5114930;28;20484;-64
2023/08/10 09:27:48;;;;;;;5.72;0.90;;;19.00;99.90;;;;;;5114551;28;20031;-64
2023/08/10 09:30:14;;;;;;;2.35;0.80;;;18.60;99.90;;;;;;5114846;28;20063;-66
2023/08/10 09:32:40;;;;;;;1.38;0.70;;;18.60;99.90;;;;;;5114625;28;20379;-64
2023/08/10 09:35:15;;;;;;;3.05;0.68;;;18.70;99.90;;;;;;5113498;28;20042;-61
2023/08/10 09:37:41;;;;;;;1.58;0.85;;;18.70;99.90;;;;;;5114267;28;20118;-62
2023/08/10 09:40:11;;;;;;;1.70;0.80;;;18.70;99.90;;;;;;5114558;28;20474;-61
2023/08/10 09:42:37;;;;;;;2.22;0.63;;;18.60;99.90;;;;;;5114341;28;20043;-61
2023/08/10 09:45:15;;;;;;;0.82;0.60;;;18.70;99.90;;;;;;5114231;28;20071;-61
2023/08/10 09:47:42;;;;;;;2.22;0.70;;;18.70;99.90;;;;;;5114532;28;20047;-62
2023/08/10 09:50:12;;;;;;;3.95;1.25;;;18.70;99.90;;;;;;5114199;28;20564;-61
2023/08/10 09:52:38;;;;;;;2.65;0.73;;;18.70;99.90;;;;;;5112663;28;20496;-62
2023/08/10 09:55:06;;;;;;;3.40;0.77;;;18.70;99.90;;;;;;5114067;28;20039;-61
2023/08/10 09:57:31;;;;;;;2.80;0.70;;;18.80;99.90;;;;;;5114310;28;20042;-61
2023/08/10 09:59:57;;;;;;;7.57;1.00;;;18.80;99.90;;;;;;5114259;28;20035;-61
2023/08/10 10:02:24;;;;;;;1.98;0.85;;;18.80;99.90;;;;;;5113922;28;20530;-61
2023/08/10 10:04:50;;;;;;;3.47;1.00;;;19.10;99.90;;;;;;5114110;28;20035;-61
2023/08/10 10:07:27;;;;;;;1.58;0.60;;;18.80;99.90;;;;;;5113896;28;20489;-61
2023/08/10 10:09:56;;;;;;;3.08;0.85;;;18.80;99.90;;;;;;5114050;28;20044;-62
2023/08/10 10:12:23;;;;;;;2.58;0.80;;;19.00;99.90;;;;;;5113923;28;20122;-61
2023/08/10 10:14:48;;;;;;;3.05;0.80;;;19.00;99.90;;;;;;5113957;28;20092;-61
2023/08/10 10:17:16;;;;;;;3.80;0.90;;;19.50;99.90;;;;;;5113990;28;20035;-62
2023/08/10 10:19:43;;;;;;;3.40;0.95;;;19.20;99.90;;;;;;5113900;28;20038;-61
2023/08/10 10:22:10;;;;;;;1.73;0.90;;;19.40;99.90;;;;;;5113902;28;20046;-61
2023/08/10 10:24:41;;;;;;;1.52;0.77;;;19.30;99.90;;;;;;5113865;28;20043;-62
2023/08/10 10:27:11;;;;;;;5.00;0.95;;;19.30;99.90;;;;;;5113815;28;20084;-62
2023/08/10 10:29:58;;;;;;;2.67;0.77;;;19.50;99.90;;;;;;5113818;28;20043;-62
2023/08/10 10:32:24;;;;;;;3.88;0.85;;;19.30;99.90;;;;;;5113580;28;20043;-62
2023/08/10 10:34:52;;;;;;;2.75;0.73;;;19.10;99.90;;;;;;5113701;28;20043;-61
2023/08/10 10:37:28;;;;;;;5.68;1.13;;;19.00;99.90;;;;;;5113391;28;20410;-62
2023/08/10 10:40:16;;;;;;;1.73;0.90;;;19.10;99.90;;;;;;5106278;28;20038;-62
2023/08/10 10:43:00;;;;;;;3.90;0.80;;;19.10;99.90;;;;;;5113565;28;20384;-61
2023/08/10 10:45:26;;;;;;;4.15;0.73;;;19.00;99.90;;;;;;5113278;28;20046;-61
2023/08/10 10:47:52;;;;;;;2.63;0.85;;;19.10;99.90;;;;;;5113646;28;20035;-62
2023/08/10 10:50:27;;;;;;;2.15;0.82;;;19.10;99.90;;;;;;5113633;28;20394;-62
2023/08/10 10:52:57;;;;;;;2.60;0.82;;;19.10;99.90;;;;;;5112242;28;20036;-62
2023/08/10 10:55:36;;;;;;;3.05;0.85;;;19.20;99.90;;;;;;5113197;28;20035;-62
2023/08/10 10:58:03;;;;;;;3.60;0.70;;;19.10;99.90;;;;;;5113640;28;20031;-62
2023/08/10 11:00:30;;;;;;;1.55;0.70;;;19.00;99.90;;;;;;5113498;28;20093;-62
2023/08/10 11:02:56;;;;;;;3.15;1.00;;;19.00;99.90;;;;;;5113420;28;20084;-62
2023/08/10 11:05:22;;;;;;;1.70;0.60;;;19.00;99.90;;;;;;5113458;28;20044;-63
2023/08/10 11:07:51;;;;;;;1.63;0.60;;;18.90;99.90;;;;;;5113398;28;20035;-62
2023/08/10 11:10:21;;;;;;;3.13;0.70;;;19.00;99.90;;;;;;5113100;28;20035;-62
2023/08/10 11:12:48;;;;;;;3.47;0.88;;;19.00;99.90;;;;;;5113554;28;20301;-62
2023/08/10 11:15:15;;;;;;;2.83;0.70;;;19.00;99.90;;;;;;5113377;28;20122;-62
2023/08/10 11:17:46;;;;;;;2.80;0.80;;;19.10;99.90;;;;;;5113833;28;20039;-62
2023/08/10 11:20:15;;;;;;;4.28;0.88;;;19.20;99.90;;;;;;5117360;28;20067;-62
2023/08/10 11:22:51;;;;;;;4.88;0.75;;;19.20;99.90;;;;;;5115693;28;20434;-62
2023/08/10 11:25:17;;;;;;;2.83;1.10;;;19.30;99.90;;;;;;5115908;28;20068;-62
2023/08/10 11:27:46;;;;;;;2.55;0.80;;;19.30;99.90;;;;;;5115840;28;20128;-62
2023/08/10 11:30:15;;;;;;;2.00;0.93;;;19.30;99.90;;;;;;5115809;28;20039;-62
2023/08/10 11:32:41;;;;;;;1.92;0.82;;;19.20;99.90;;;;;;5117053;28;20403;-62
2023/08/10 11:35:12;;;;;;;4.40;1.13;;;19.20;95.70;;;;;;5116792;28;20503;-62
2023/08/10 11:37:39;;;;;;;2.40;0.70;;;19.30;99.60;;;;;;5116659;28;20388;-62
2023/08/10 11:40:19;;;;;;;5.15;0.93;;;19.40;99.90;;;;;;5116713;28;20089;-62
2023/08/10 11:42:48;;;;;;;3.13;1.15;;;19.40;99.90;;;;;;5116958;28;20047;-62
2023/08/10 11:45:23;;;;;;;4.10;1.08;;;19.30;98.30;;;;;;5116883;28;20132;-62
2023/08/10 11:47:51;;;;;;;2.10;0.80;;;19.30;97.70;;;;;;5116795;28;20542;-62
2023/08/10 11:50:18;;;;;;;3.28;1.17;;;19.30;98.80;;;;;;5116783;28;20062;-62
2023/08/10 11:52:44;;;;;;;3.40;0.80;;;19.40;99.90;;;;;;5116587;28;20044;-62
2023/08/10 11:55:16;;;;;;;4.75;1.15;;;19.30;99.90;;;;;;5116778;28;20475;-62
2023/08/10 11:57:51;;;;;;;1.20;0.68;;;19.60;99.90;;;;;;5116445;28;20046;-62
2023/08/10 12:00:25;;;;;;;2.92;1.23;;;19.20;99.90;;;;;;5116462;28;20402;-62
2023/08/10 12:03:13;;;;;;;1.60;0.90;;;19.20;99.80;;;;;;5116349;28;20610;-63
2023/08/10 12:05:43;;;;;;;4.20;1.00;;;19.70;99.90;;;;;;5116492;28;20047;-63
2023/08/10 12:08:17;;;;;;;3.00;1.38;;;19.50;99.90;;;;;;5116533;28;20050;-61
2023/08/10 12:10:51;;;;;;;4.38;1.20;;;19.20;99.90;;;;;;5116343;28;20471;-61
2023/08/10 12:13:19;;;;;;;5.85;1.10;;;19.40;99.90;;;;;;5116054;28;20044;-62
2023/08/10 12:15:46;;;;;;;1.58;1.10;;;19.30;99.90;;;;;;5116309;28;20080;-61
2023/08/10 12:18:13;;;;;;;4.70;1.40;;;19.40;99.90;;;;;;5115924;28;20075;-61
2023/08/10 12:20:39;;;;;;;2.50;1.08;;;19.40;99.90;;;;;;5115862;28;20089;-62
2023/08/10 12:23:05;;;;;;;4.07;1.10;;;19.50;99.90;;;;;;5114590;28;20040;-61
2023/08/10 12:25:30;;;;;;;3.25;1.23;;;19.40;99.90;;;;;;5115923;28;20039;-62
2023/08/10 12:27:56;;;;;;;3.45;1.17;;;19.40;99.90;;;;;;5114508;28;20092;-62
2023/08/10 12:30:21;;;;;;;6.05;1.40;;;19.30;99.90;;;;;;5115887;28;20036;-62
2023/08/10 12:32:47;;;;;;;3.55;1.45;;;19.40;99.90;;;;;;5115897;28;20043;-62
2023/08/10 12:35:14;;;;;;;3.75;1.00;;;19.30;99.90;;;;;;5115671;28;20043;-61
2023/08/10 12:37:42;;;;;;;4.25;1.50;;;19.70;99.90;;;;;;5114081;28;20058;-62
2023/08/10 12:40:10;;;;;;;6.32;1.30;;;19.40;99.90;;;;;;5114110;28;20079;-61
2023/08/10 12:42:36;;;;;;;3.42;1.50;;;19.30;99.90;;;;;;5115802;28;20046;-61
2023/08/10 12:45:02;;;;;;;2.83;1.30;;;19.30;99.90;;;;;;5115761;28;20494;-62
2023/08/10 12:47:28;;;;;;;2.58;1.35;;;19.30;99.90;;;;;;5097182;28;20405;-61
2023/08/10 12:49:54;;;;;;;3.78;1.25;;;19.20;99.90;;;;;;5115631;28;20071;-61
2023/08/10 12:52:20;;;;;;;6.93;1.70;;;19.10;99.90;;;;;;5114067;28;20079;-62
2023/08/10 12:54:45;;;;;;;5.57;1.58;;;19.00;99.90;;;;;;5115548;28;20063;-62
2023/08/10 12:57:11;;;;;;;4.18;1.52;;;19.00;99.90;;;;;;5115495;28;20490;-62
2023/08/10 12:59:37;;;;;;;5.78;1.35;;;18.90;99.90;;;;;;5115200;28;20150;-62
2023/08/10 13:02:02;;;;;;;7.65;1.50;;;18.80;99.90;;;;;;5115326;28;20096;-62
2023/08/10 13:04:28;;;;;;;2.83;1.23;;;18.80;99.90;;;;;;5115416;28;20512;-62